DLH5MN EDDM-EIDW
Flight info
| Callsign | DLH5MN |
|---|---|
| Flight time | N/A |
| Altitude | 36000 |
| Route | GIVMI1N GIVMI Y101 IBAGA DCT MASEK DCT MAPOX DCT RAVLO Y70 OTBED L60 PENIL UL28 LELDO M145 BAGSO BAGSO4L |
| Aircraft | A320/M-SDE2E3FGIJ1LORWXYZ/HB1 |
Departure
| Time | 2026-05-05 17:18 |
|---|---|
| Airport | Munich Airport (EDDM) |
Arrival
| Time | N/A |
|---|---|
| Airport | Dublin Airport (EIDW) |
| Time | Latitude | Longitude | Altitude | Speed | Heading |
|---|---|---|---|---|---|
| 2026-05-05 16:13 | 48.35643 | 11.79274 | 1486 ft | 0 kts | 263° |
| 2026-05-05 17:06 | 48.35646 | 11.79307 | 1482 ft | 4 kts | 263° |
| 2026-05-05 17:06 | 48.35649 | 11.79348 | 1476 ft | 3 kts | 263° |
| 2026-05-05 17:06 | 48.35650 | 11.79380 | 1477 ft | 4 kts | 281° |
| 2026-05-05 17:07 | 48.35640 | 11.79413 | 1473 ft | 4 kts | 323° |
| 2026-05-05 17:07 | 48.35618 | 11.79426 | 1481 ft | 4 kts | 353° |
| 2026-05-05 17:07 | 48.35606 | 11.79428 | 1474 ft | 0 kts | 353° |
| 2026-05-05 17:10 | 48.35613 | 11.79430 | 1473 ft | 3 kts | 11° |
| 2026-05-05 17:10 | 48.35638 | 11.79455 | 1478 ft | 6 kts | 41° |
| 2026-05-05 17:10 | 48.35670 | 11.79496 | 1482 ft | 5 kts | 41° |
| 2026-05-05 17:10 | 48.35696 | 11.79530 | 1471 ft | 5 kts | 40° |
| 2026-05-05 17:11 | 48.35737 | 11.79543 | 1480 ft | 7 kts | 352° |
| 2026-05-05 17:11 | 48.35798 | 11.79530 | 1473 ft | 10 kts | 352° |
| 2026-05-05 17:11 | 48.35876 | 11.79518 | 1483 ft | 13 kts | 353° |
| 2026-05-05 17:11 | 48.35972 | 11.79500 | 1480 ft | 15 kts | 353° |
| 2026-05-05 17:12 | 48.36079 | 11.79482 | 1480 ft | 16 kts | 353° |
| 2026-05-05 17:12 | 48.36184 | 11.79469 | 1477 ft | 13 kts | 10° |
| 2026-05-05 17:12 | 48.36222 | 11.79576 | 1473 ft | 13 kts | 86° |
| 2026-05-05 17:12 | 48.36231 | 11.79699 | 1483 ft | 11 kts | 83° |
| 2026-05-05 17:13 | 48.36239 | 11.79803 | 1474 ft | 9 kts | 83° |
| 2026-05-05 17:13 | 48.36247 | 11.79909 | 1485 ft | 11 kts | 83° |
| 2026-05-05 17:13 | 48.36258 | 11.80036 | 1485 ft | 14 kts | 82° |
| 2026-05-05 17:13 | 48.36270 | 11.80195 | 1485 ft | 17 kts | 83° |
| 2026-05-05 17:14 | 48.36284 | 11.80384 | 1480 ft | 20 kts | 83° |
| 2026-05-05 17:14 | 48.36302 | 11.80604 | 1485 ft | 22 kts | 83° |
| 2026-05-05 17:14 | 48.36320 | 11.80851 | 1485 ft | 25 kts | 83° |
| 2026-05-05 17:14 | 48.36341 | 11.81119 | 1481 ft | 27 kts | 83° |
| 2026-05-05 17:15 | 48.36364 | 11.81411 | 1485 ft | 28 kts | 83° |
| 2026-05-05 17:15 | 48.36387 | 11.81707 | 1485 ft | 26 kts | 83° |
| 2026-05-05 17:15 | 48.36399 | 11.81903 | 1485 ft | 14 kts | 90° |
| 2026-05-05 17:15 | 48.36421 | 11.82003 | 1476 ft | 8 kts | 27° |
| 2026-05-05 17:16 | 48.36474 | 11.81998 | 1479 ft | 7 kts | 355° |
| 2026-05-05 17:16 | 48.36519 | 11.81991 | 1473 ft | 6 kts | 354° |
| 2026-05-05 17:16 | 48.36569 | 11.81981 | 1478 ft | 10 kts | 353° |
| 2026-05-05 17:16 | 48.36644 | 11.81970 | 1485 ft | 10 kts | 354° |
| 2026-05-05 17:17 | 48.36675 | 11.81921 | 1480 ft | 7 kts | 257° |
| 2026-05-05 17:17 | 48.36669 | 11.81856 | 1485 ft | 8 kts | 263° |
| 2026-05-05 17:17 | 48.36647 | 11.81536 | 1485 ft | 65 kts | 264° |
| 2026-05-05 17:17 | 48.36567 | 11.80526 | 1473 ft | 127 kts | 263° |
| 2026-05-05 17:18 | 48.36447 | 11.78956 | 1480 ft | 174 kts | 263° |
| 2026-05-05 17:18 | 48.36293 | 11.77105 | 2065 ft | 177 kts | 263° |
| 2026-05-05 17:18 | 48.36150 | 11.75295 | 2823 ft | 178 kts | 267° |
| 2026-05-05 17:18 | 48.36013 | 11.73333 | 3152 ft | 197 kts | 267° |
| 2026-05-05 17:19 | 48.35864 | 11.71159 | 3462 ft | 220 kts | 266° |
| 2026-05-05 17:19 | 48.35717 | 11.68821 | 4167 ft | 226 kts | 270° |
| 2026-05-05 17:19 | 48.36085 | 11.66497 | 4745 ft | 242 kts | 298° |
| 2026-05-05 17:19 | 48.37007 | 11.64244 | 5233 ft | 261 kts | 301° |
| 2026-05-05 17:20 | 48.38016 | 11.61919 | 6002 ft | 269 kts | 302° |
| 2026-05-05 17:20 | 48.39043 | 11.59553 | 6590 ft | 276 kts | 301° |
| 2026-05-05 17:20 | 48.40087 | 11.57108 | 6933 ft | 279 kts | 300° |
| 2026-05-05 17:20 | 48.41122 | 11.54631 | 7843 ft | 279 kts | 299° |
| 2026-05-05 17:21 | 48.42155 | 11.52124 | 8710 ft | 282 kts | 299° |
| 2026-05-05 17:21 | 48.43177 | 11.49626 | 9478 ft | 287 kts | 298° |
| 2026-05-05 17:21 | 48.44233 | 11.47054 | 9740 ft | 289 kts | 301° |
| 2026-05-05 17:22 | 48.47305 | 11.43106 | 9819 ft | 306 kts | 333° |
| 2026-05-05 17:22 | 48.49426 | 11.42147 | 9821 ft | 324 kts | 348° |
| 2026-05-05 17:22 | 48.51548 | 11.41445 | 9821 ft | 306 kts | 336° |
| 2026-05-05 17:22 | 48.53321 | 11.39727 | 9854 ft | 311 kts | 310° |
| 2026-05-05 17:23 | 48.54748 | 11.37149 | 10218 ft | 327 kts | 305° |
| 2026-05-05 17:23 | 48.56152 | 11.34399 | 10907 ft | 333 kts | 304° |
| 2026-05-05 17:23 | 48.57634 | 11.31675 | 11661 ft | 339 kts | 313° |
| 2026-05-05 17:23 | 48.59604 | 11.29635 | 12385 ft | 350 kts | 334° |
| 2026-05-05 17:24 | 48.61953 | 11.28518 | 13126 ft | 355 kts | 342° |
| 2026-05-05 17:24 | 48.64331 | 11.27542 | 13817 ft | 359 kts | 342° |
| 2026-05-05 17:24 | 48.66762 | 11.26565 | 14429 ft | 363 kts | 342° |
| 2026-05-05 17:24 | 48.69220 | 11.25587 | 15040 ft | 367 kts | 342° |
| 2026-05-05 17:25 | 48.71702 | 11.24596 | 15646 ft | 370 kts | 343° |
| 2026-05-05 17:25 | 48.73361 | 11.23929 | 16049 ft | 373 kts | 342° |
| 2026-05-05 17:25 | 48.76741 | 11.22554 | 16845 ft | 379 kts | 343° |
| 2026-05-05 17:25 | 48.79274 | 11.21515 | 17411 ft | 383 kts | 343° |
| 2026-05-05 17:26 | 48.81862 | 11.20450 | 17994 ft | 387 kts | 343° |
| 2026-05-05 17:26 | 48.84483 | 11.19374 | 18527 ft | 391 kts | 343° |
| 2026-05-05 17:26 | 48.87124 | 11.18292 | 19037 ft | 394 kts | 343° |
| 2026-05-05 17:26 | 48.89786 | 11.17204 | 19559 ft | 397 kts | 343° |
| 2026-05-05 17:27 | 48.92468 | 11.16107 | 20075 ft | 401 kts | 343° |
| 2026-05-05 17:27 | 48.95148 | 11.15011 | 20586 ft | 404 kts | 343° |
| 2026-05-05 17:27 | 48.97871 | 11.13892 | 21077 ft | 407 kts | 343° |
| 2026-05-05 17:27 | 49.00619 | 11.12757 | 21575 ft | 410 kts | 343° |
| 2026-05-05 17:28 | 49.03390 | 11.11608 | 22056 ft | 413 kts | 343° |
| 2026-05-05 17:28 | 49.06177 | 11.10453 | 22532 ft | 416 kts | 343° |
| 2026-05-05 17:28 | 49.08983 | 11.09293 | 22991 ft | 419 kts | 344° |
| 2026-05-05 17:28 | 49.11808 | 11.08108 | 23457 ft | 422 kts | 342° |
| 2026-05-05 17:29 | 49.14626 | 11.06790 | 23835 ft | 425 kts | 341° |
| 2026-05-05 17:29 | 49.17404 | 11.05380 | 24206 ft | 427 kts | 340° |
| 2026-05-05 17:29 | 49.20229 | 11.03883 | 24600 ft | 430 kts | 339° |
| 2026-05-05 17:29 | 49.23064 | 11.02359 | 24962 ft | 432 kts | 339° |
| 2026-05-05 17:30 | 49.25911 | 11.00833 | 25318 ft | 435 kts | 340° |
| 2026-05-05 17:30 | 49.28786 | 10.99312 | 25678 ft | 438 kts | 340° |
| 2026-05-05 17:30 | 49.31685 | 10.97800 | 26036 ft | 440 kts | 340° |
| 2026-05-05 17:30 | 49.34564 | 10.96315 | 26388 ft | 443 kts | 340° |
| 2026-05-05 17:31 | 49.37478 | 10.94734 | 26724 ft | 445 kts | 336° |
| 2026-05-05 17:31 | 49.40231 | 10.92574 | 27070 ft | 445 kts | 326° |
| 2026-05-05 17:31 | 49.42795 | 10.89887 | 27405 ft | 447 kts | 323° |
| 2026-05-05 17:31 | 49.45355 | 10.87133 | 27761 ft | 449 kts | 323° |
| 2026-05-05 17:32 | 49.47899 | 10.84398 | 28071 ft | 452 kts | 323° |
| 2026-05-05 17:32 | 49.50486 | 10.81624 | 28414 ft | 454 kts | 323° |
| 2026-05-05 17:32 | 49.53095 | 10.78832 | 28758 ft | 457 kts | 323° |
| 2026-05-05 17:32 | 49.55686 | 10.75963 | 29086 ft | 459 kts | 322° |
| 2026-05-05 17:33 | 49.58261 | 10.72974 | 29408 ft | 461 kts | 321° |
| 2026-05-05 17:33 | 49.60769 | 10.69969 | 29726 ft | 463 kts | 320° |
| 2026-05-05 17:33 | 49.63314 | 10.66876 | 30030 ft | 465 kts | 320° |
| 2026-05-05 17:33 | 49.65873 | 10.63768 | 30326 ft | 468 kts | 320° |
| 2026-05-05 17:34 | 49.68416 | 10.60700 | 30579 ft | 470 kts | 320° |
| 2026-05-05 17:34 | 49.71017 | 10.57585 | 30846 ft | 471 kts | 320° |
| 2026-05-05 17:34 | 49.73626 | 10.54479 | 31077 ft | 473 kts | 320° |
| 2026-05-05 17:34 | 49.76244 | 10.51370 | 31413 ft | 473 kts | 320° |
| 2026-05-05 17:35 | 49.78814 | 10.48316 | 31770 ft | 471 kts | 320° |
| 2026-05-05 17:35 | 49.81413 | 10.45219 | 32155 ft | 470 kts | 320° |
| 2026-05-05 17:35 | 49.84004 | 10.42121 | 32500 ft | 470 kts | 320° |
| 2026-05-05 17:35 | 49.86591 | 10.39019 | 32818 ft | 469 kts | 320° |
| 2026-05-05 17:36 | 49.89180 | 10.35907 | 33151 ft | 469 kts | 320° |
| 2026-05-05 17:36 | 49.91727 | 10.32840 | 33475 ft | 469 kts | 320° |
| 2026-05-05 17:36 | 49.94305 | 10.29731 | 33811 ft | 468 kts | 320° |
| 2026-05-05 17:36 | 49.96882 | 10.26621 | 34100 ft | 467 kts | 319° |
| 2026-05-05 17:37 | 49.99449 | 10.23519 | 34440 ft | 465 kts | 319° |
| 2026-05-05 17:37 | 50.01136 | 10.21476 | 34663 ft | 464 kts | 319° |
| 2026-05-05 17:37 | 50.04511 | 10.17386 | 35056 ft | 462 kts | 319° |
| 2026-05-05 17:37 | 50.07046 | 10.14310 | 35345 ft | 461 kts | 319° |
| 2026-05-05 17:38 | 50.09574 | 10.11241 | 35616 ft | 459 kts | 319° |
| 2026-05-05 17:38 | 50.12101 | 10.08170 | 35788 ft | 459 kts | 319° |
| 2026-05-05 17:38 | 50.14604 | 10.05130 | 35820 ft | 456 kts | 319° |
| 2026-05-05 17:39 | 50.19592 | 9.99050 | 35818 ft | 454 kts | 319° |
| 2026-05-05 17:39 | 50.24537 | 9.92990 | 35806 ft | 452 kts | 319° |
| 2026-05-05 17:40 | 50.29492 | 9.86905 | 35816 ft | 452 kts | 319° |
| 2026-05-05 17:40 | 50.33604 | 9.81847 | 35807 ft | 452 kts | 319° |
| 2026-05-05 17:41 | 50.38551 | 9.75753 | 35810 ft | 452 kts | 319° |
| 2026-05-05 17:41 | 50.43497 | 9.69647 | 35818 ft | 452 kts | 319° |
| 2026-05-05 17:42 | 50.48419 | 9.63548 | 35810 ft | 453 kts | 318° |
| 2026-05-05 17:42 | 50.53365 | 9.57381 | 35810 ft | 452 kts | 318° |
| 2026-05-05 17:43 | 50.58259 | 9.51269 | 35815 ft | 452 kts | 318° |
| 2026-05-05 17:43 | 50.63191 | 9.45107 | 35811 ft | 452 kts | 318° |
| 2026-05-05 17:44 | 50.68125 | 9.38937 | 35809 ft | 452 kts | 318° |
| 2026-05-05 17:44 | 50.73024 | 9.32778 | 35815 ft | 452 kts | 318° |
| 2026-05-05 17:45 | 50.77943 | 9.26568 | 35802 ft | 452 kts | 318° |
| 2026-05-05 17:45 | 50.82870 | 9.20336 | 35794 ft | 453 kts | 318° |
| 2026-05-05 17:46 | 50.87760 | 9.14139 | 35794 ft | 453 kts | 318° |
| 2026-05-05 17:46 | 50.92688 | 9.07884 | 35796 ft | 453 kts | 318° |
| 2026-05-05 17:47 | 50.97611 | 9.01609 | 35794 ft | 453 kts | 318° |
| 2026-05-05 17:47 | 51.02499 | 8.95356 | 35834 ft | 455 kts | 317° |
| 2026-05-05 17:47 | 51.04967 | 8.92189 | 35988 ft | 457 kts | 317° |
| 2026-05-05 17:48 | 51.07447 | 8.89004 | 36202 ft | 457 kts | 317° |
| 2026-05-05 17:48 | 51.09925 | 8.85821 | 36436 ft | 457 kts | 317° |
| 2026-05-05 17:48 | 51.12286 | 8.82467 | 36684 ft | 452 kts | 309° |
| 2026-05-05 17:48 | 51.14236 | 8.78657 | 36931 ft | 446 kts | 300° |
| 2026-05-05 17:49 | 51.15819 | 8.74430 | 37171 ft | 442 kts | 295° |
| 2026-05-05 17:49 | 51.17315 | 8.70146 | 37398 ft | 441 kts | 295° |
| 2026-05-05 17:49 | 51.18795 | 8.65914 | 37623 ft | 440 kts | 295° |
| 2026-05-05 17:49 | 51.20289 | 8.61639 | 37795 ft | 440 kts | 295° |
| 2026-05-05 17:50 | 51.21779 | 8.57374 | 37838 ft | 439 kts | 295° |
| 2026-05-05 17:50 | 51.24733 | 8.48910 | 37819 ft | 439 kts | 295° |
| 2026-05-05 17:51 | 51.27710 | 8.40360 | 37831 ft | 438 kts | 295° |
| 2026-05-05 17:51 | 51.30645 | 8.31868 | 37826 ft | 437 kts | 295° |
| 2026-05-05 17:52 | 51.33573 | 8.23380 | 37825 ft | 437 kts | 295° |
| 2026-05-05 17:52 | 51.36504 | 8.14850 | 37845 ft | 437 kts | 295° |
| 2026-05-05 17:53 | 51.39435 | 8.06297 | 37844 ft | 437 kts | 295° |
| 2026-05-05 17:53 | 51.42346 | 7.97769 | 37841 ft | 437 kts | 294° |
| 2026-05-05 17:54 | 51.45240 | 7.89242 | 37843 ft | 437 kts | 294° |
| 2026-05-05 17:54 | 51.48152 | 7.80647 | 37845 ft | 437 kts | 294° |
| 2026-05-05 17:55 | 51.51057 | 7.72059 | 37849 ft | 437 kts | 294° |
| 2026-05-05 17:55 | 51.53942 | 7.63496 | 37855 ft | 438 kts | 294° |
| 2026-05-05 17:56 | 51.56823 | 7.54904 | 37852 ft | 438 kts | 294° |
| 2026-05-05 17:56 | 51.59711 | 7.46258 | 37864 ft | 438 kts | 294° |
| 2026-05-05 17:57 | 51.62596 | 7.37594 | 37868 ft | 437 kts | 294° |
| 2026-05-05 17:57 | 51.65454 | 7.28991 | 37870 ft | 437 kts | 294° |
| 2026-05-05 17:58 | 51.68306 | 7.20380 | 37883 ft | 437 kts | 294° |